sensor_id;sensor_type;location;lat;lon;timestamp;pressure;altitude;pressure_sealevel;temperature;humidity
25510;BME280;13413;52.336;21.200;2023-05-29T00:01:51;100802.85;;;13.46;54.48
25510;BME280;13413;52.336;21.200;2023-05-29T00:04:45;100799.38;;;13.25;54.73
25510;BME280;13413;52.336;21.200;2023-05-29T00:07:40;100802.05;;;13.23;54.98
25510;BME280;13413;52.336;21.200;2023-05-29T00:10:34;100800.02;;;13.21;54.93
25510;BME280;13413;52.336;21.200;2023-05-29T00:13:28;100802.68;;;13.16;55.09
25510;BME280;13413;52.336;21.200;2023-05-29T00:16:22;100801.80;;;13.01;55.41
25510;BME280;13413;52.336;21.200;2023-05-29T00:19:16;100799.20;;;12.76;55.72
25510;BME280;13413;52.336;21.200;2023-05-29T00:22:10;100796.80;;;12.59;56.11
25510;BME280;13413;52.336;21.200;2023-05-29T00:25:05;100797.52;;;12.73;56.02
25510;BME280;13413;52.336;21.200;2023-05-29T00:28:00;100797.48;;;12.82;55.98
25510;BME280;13413;52.336;21.200;2023-05-29T00:30:54;100803.23;;;12.87;55.93
25510;BME280;13413;52.336;21.200;2023-05-29T00:42:40;100797.44;;;13.06;55.99
25510;BME280;13413;52.336;21.200;2023-05-29T00:45:35;100801.17;;;13.00;56.02
25510;BME280;13413;52.336;21.200;2023-05-29T00:48:29;100804.20;;;13.02;56.17
25510;BME280;13413;52.336;21.200;2023-05-29T00:54:20;100804.95;;;12.92;56.29
25510;BME280;13413;52.336;21.200;2023-05-29T00:57:15;100806.88;;;12.95;56.43
25510;BME280;13413;52.336;21.200;2023-05-29T01:00:11;100807.73;;;13.00;56.46
25510;BME280;13413;52.336;21.200;2023-05-29T01:03:06;100800.80;;;12.99;56.37
25510;BME280;13413;52.336;21.200;2023-05-29T01:06:01;100802.48;;;12.94;56.46
25510;BME280;13413;52.336;21.200;2023-05-29T01:08:55;100802.10;;;12.91;56.59
25510;BME280;13413;52.336;21.200;2023-05-29T01:11:59;100801.34;;;12.85;56.61
25510;BME280;13413;52.336;21.200;2023-05-29T01:15:07;100799.25;;;12.82;56.61
25510;BME280;13413;52.336;21.200;2023-05-29T01:18:11;100796.46;;;12.83;56.68
25510;BME280;13413;52.336;21.200;2023-05-29T01:21:11;100792.14;;;12.83;56.68
25510;BME280;13413;52.336;21.200;2023-05-29T01:24:15;100791.61;;;12.86;56.57
25510;BME280;13413;52.336;21.200;2023-05-29T01:27:17;100801.66;;;12.66;57.03
25510;BME280;13413;52.336;21.200;2023-05-29T01:30:12;100794.73;;;12.40;57.11
25510;BME280;13413;52.336;21.200;2023-05-29T01:33:08;100794.35;;;12.42;57.14
25510;BME280;13413;52.336;21.200;2023-05-29T01:36:01;100792.14;;;12.40;57.25
25510;BME280;13413;52.336;21.200;2023-05-29T01:38:56;100793.16;;;12.31;57.27
25510;BME280;13413;52.336;21.200;2023-05-29T01:41:51;100793.87;;;12.31;57.41
25510;BME280;13413;52.336;21.200;2023-05-29T01:44:47;100795.25;;;12.37;57.53
25510;BME280;13413;52.336;21.200;2023-05-29T01:47:41;100790.77;;;12.39;57.47
25510;BME280;13413;52.336;21.200;2023-05-29T01:50:34;100790.30;;;12.25;57.48
25510;BME280;13413;52.336;21.200;2023-05-29T01:53:29;100795.66;;;12.00;57.90
25510;BME280;13413;52.336;21.200;2023-05-29T01:56:23;100799.30;;;11.99;57.97
25510;BME280;13413;52.336;21.200;2023-05-29T01:59:16;100793.77;;;12.05;57.92
25510;BME280;13413;52.336;21.200;2023-05-29T02:02:12;100794.75;;;12.10;57.92
25510;BME280;13413;52.336;21.200;2023-05-29T02:05:08;100794.42;;;12.11;57.89
25510;BME280;13413;52.336;21.200;2023-05-29T02:08:02;100792.69;;;12.11;57.87
25510;BME280;13413;52.336;21.200;2023-05-29T02:10:56;100787.36;;;11.98;58.05
25510;BME280;13413;52.336;21.200;2023-05-29T02:13:50;100780.34;;;11.93;58.08
25510;BME280;13413;52.336;21.200;2023-05-29T02:16:44;100776.11;;;11.90;58.20
25510;BME280;13413;52.336;21.200;2023-05-29T02:22:32;100768.93;;;11.89;58.29
25510;BME280;13413;52.336;21.200;2023-05-29T02:25:26;100768.48;;;11.91;58.29
25510;BME280;13413;52.336;21.200;2023-05-29T02:28:20;100769.93;;;11.94;58.44
25510;BME280;13413;52.336;21.200;2023-05-29T02:31:14;100769.98;;;11.87;58.34
25510;BME280;13413;52.336;21.200;2023-05-29T02:34:08;100769.08;;;11.80;58.50
25510;BME280;13413;52.336;21.200;2023-05-29T02:37:02;100764.78;;;11.76;58.54
25510;BME280;13413;52.336;21.200;2023-05-29T02:39:56;100760.77;;;11.75;58.60
25510;BME280;13413;52.336;21.200;2023-05-29T02:42:51;100761.98;;;11.79;58.71
25510;BME280;13413;52.336;21.200;2023-05-29T02:45:48;100757.89;;;11.85;58.63
25510;BME280;13413;52.336;21.200;2023-05-29T02:51:37;100754.98;;;11.82;58.81
25510;BME280;13413;52.336;21.200;2023-05-29T02:54:29;100754.58;;;11.77;58.60
25510;BME280;13413;52.336;21.200;2023-05-29T03:02:55;100757.41;;;11.72;59.11
25510;BME280;13413;52.336;21.200;2023-05-29T03:05:49;100759.34;;;11.80;59.12
25510;BME280;13413;52.336;21.200;2023-05-29T03:08:43;100761.36;;;11.81;59.02
25510;BME280;13413;52.336;21.200;2023-05-29T03:11:37;100768.38;;;11.78;59.09
25510;BME280;13413;52.336;21.200;2023-05-29T03:14:31;100772.92;;;11.68;59.17
25510;BME280;13413;52.336;21.200;2023-05-29T03:17:25;100771.52;;;11.55;59.30
25510;BME280;13413;52.336;21.200;2023-05-29T03:20:19;100763.98;;;11.54;59.53
25510;BME280;13413;52.336;21.200;2023-05-29T03:23:13;100765.30;;;11.63;59.56
25510;BME280;13413;52.336;21.200;2023-05-29T03:26:07;100769.23;;;11.71;59.54
25510;BME280;13413;52.336;21.200;2023-05-29T03:29:01;100770.39;;;11.76;59.59
25510;BME280;13413;52.336;21.200;2023-05-29T03:31:55;100775.42;;;11.86;59.62
25510;BME280;13413;52.336;21.200;2023-05-29T03:34:49;100773.02;;;11.96;59.57
25510;BME280;13413;52.336;21.200;2023-05-29T03:37:43;100781.57;;;12.07;59.48
25510;BME280;13413;52.336;21.200;2023-05-29T03:40:37;100783.60;;;12.11;59.52
25510;BME280;13413;52.336;21.200;2023-05-29T03:43:31;100784.77;;;12.18;59.50
25510;BME280;13413;52.336;21.200;2023-05-29T03:46:25;100782.19;;;12.26;59.44
25510;BME280;13413;52.336;21.200;2023-05-29T03:49:19;100783.81;;;12.28;59.33
25510;BME280;13413;52.336;21.200;2023-05-29T03:52:13;100780.77;;;12.31;59.31
25510;BME280;13413;52.336;21.200;2023-05-29T03:55:10;100783.09;;;12.37;59.47
25510;BME280;13413;52.336;21.200;2023-05-29T03:58:04;100779.94;;;12.44;59.27
25510;BME280;13413;52.336;21.200;2023-05-29T04:01:14;100784.36;;;12.50;59.39
25510;BME280;13413;52.336;21.200;2023-05-29T04:04:08;100785.70;;;12.55;59.33
25510;BME280;13413;52.336;21.200;2023-05-29T04:07:02;100790.98;;;12.57;59.53
25510;BME280;13413;52.336;21.200;2023-05-29T04:09:56;100792.58;;;12.57;59.66
25510;BME280;13413;52.336;21.200;2023-05-29T04:12:50;100794.38;;;12.57;59.78
25510;BME280;13413;52.336;21.200;2023-05-29T04:15:44;100797.42;;;12.58;59.96
25510;BME280;13413;52.336;21.200;2023-05-29T04:18:38;100803.21;;;12.64;59.86
25510;BME280;13413;52.336;21.200;2023-05-29T04:21:32;100798.70;;;12.75;60.07
25510;BME280;13413;52.336;21.200;2023-05-29T04:24:26;100802.59;;;12.91;60.01
25510;BME280;13413;52.336;21.200;2023-05-29T04:27:20;100802.80;;;13.11;60.08
25510;BME280;13413;52.336;21.200;2023-05-29T04:30:15;100805.97;;;13.32;59.79
25510;BME280;13413;52.336;21.200;2023-05-29T04:33:09;100803.69;;;13.52;59.90
25510;BME280;13413;52.336;21.200;2023-05-29T04:36:03;100797.60;;;13.75;59.80
25510;BME280;13413;52.336;21.200;2023-05-29T04:38:57;100796.50;;;13.95;59.57
25510;BME280;13413;52.336;21.200;2023-05-29T04:41:51;100800.48;;;14.15;59.50
25510;BME280;13413;52.336;21.200;2023-05-29T04:44:45;100800.46;;;14.31;59.11
25510;BME280;13413;52.336;21.200;2023-05-29T04:47:39;100803.52;;;14.46;58.97
25510;BME280;13413;52.336;21.200;2023-05-29T04:50:33;100812.89;;;14.62;59.08
25510;BME280;13413;52.336;21.200;2023-05-29T04:53:27;100806.50;;;14.78;58.78
25510;BME280;13413;52.336;21.200;2023-05-29T04:56:21;100803.42;;;14.88;58.00
25510;BME280;13413;52.336;21.200;2023-05-29T04:59:15;100804.85;;;14.87;57.89
25510;BME280;13413;52.336;21.200;2023-05-29T05:02:09;100803.68;;;14.97;58.26
25510;BME280;13413;52.336;21.200;2023-05-29T05:05:03;100803.80;;;15.14;57.97
25510;BME280;13413;52.336;21.200;2023-05-29T05:07:57;100805.67;;;15.28;57.60
25510;BME280;13413;52.336;21.200;2023-05-29T05:10:51;100800.64;;;15.43;57.33
25510;BME280;13413;52.336;21.200;2023-05-29T05:13:43;100801.98;;;15.58;56.98
25510;BME280;13413;52.336;21.200;2023-05-29T05:22:20;100788.64;;;15.68;55.76
25510;BME280;13413;52.336;21.200;2023-05-29T05:25:14;100795.02;;;15.74;55.43
25510;BME280;13413;52.336;21.200;2023-05-29T05:28:09;100795.20;;;15.83;54.73
25510;BME280;13413;52.336;21.200;2023-05-29T05:31:02;100794.52;;;15.92;55.01
25510;BME280;13413;52.336;21.200;2023-05-29T05:33:57;100791.11;;;16.07;54.99
25510;BME280;13413;52.336;21.200;2023-05-29T05:36:51;100795.73;;;16.16;54.12
25510;BME280;13413;52.336;21.200;2023-05-29T05:39:45;100791.95;;;16.26;54.01
25510;BME280;13413;52.336;21.200;2023-05-29T05:42:39;100798.04;;;16.39;54.30
25510;BME280;13413;52.336;21.200;2023-05-29T05:45:34;100801.37;;;16.63;54.32
25510;BME280;13413;52.336;21.200;2023-05-29T05:48:29;100797.20;;;16.88;53.77
25510;BME280;13413;52.336;21.200;2023-05-29T05:51:23;100797.70;;;17.13;53.11
25510;BME280;13413;52.336;21.200;2023-05-29T05:54:17;100798.94;;;17.33;52.46
25510;BME280;13413;52.336;21.200;2023-05-29T05:57:11;100798.96;;;17.54;52.50
25510;BME280;13413;52.336;21.200;2023-05-29T06:00:07;100800.14;;;17.69;51.43
25510;BME280;13413;52.336;21.200;2023-05-29T06:03:01;100802.92;;;17.63;50.49
25510;BME280;13413;52.336;21.200;2023-05-29T06:05:55;100803.11;;;17.62;49.80
25510;BME280;13413;52.336;21.200;2023-05-29T06:08:49;100801.02;;;17.65;49.70
25510;BME280;13413;52.336;21.200;2023-05-29T06:11:43;100799.63;;;17.74;49.11
25510;BME280;13413;52.336;21.200;2023-05-29T06:14:37;100798.45;;;17.80;48.96
25510;BME280;13413;52.336;21.200;2023-05-29T06:17:31;100797.33;;;17.82;48.55
25510;BME280;13413;52.336;21.200;2023-05-29T06:20:25;100793.70;;;17.89;48.19
25510;BME280;13413;52.336;21.200;2023-05-29T06:23:19;100795.54;;;17.96;47.81
25510;BME280;13413;52.336;21.200;2023-05-29T06:26:13;100792.31;;;18.05;46.84
25510;BME280;13413;52.336;21.200;2023-05-29T06:29:07;100796.92;;;18.20;47.38
25510;BME280;13413;52.336;21.200;2023-05-29T06:32:01;100799.67;;;18.31;46.79
25510;BME280;13413;52.336;21.200;2023-05-29T06:34:55;100797.73;;;18.38;46.83
25510;BME280;13413;52.336;21.200;2023-05-29T06:37:49;100797.65;;;18.43;44.66
25510;BME280;13413;52.336;21.200;2023-05-29T06:40:43;100795.62;;;18.53;45.19
25510;BME280;13413;52.336;21.200;2023-05-29T06:43:37;100793.61;;;18.67;44.66
25510;BME280;13413;52.336;21.200;2023-05-29T06:46:31;100792.98;;;18.74;44.73
25510;BME280;13413;52.336;21.200;2023-05-29T06:49:25;100792.66;;;18.84;43.85
25510;BME280;13413;52.336;21.200;2023-05-29T06:52:19;100788.98;;;18.98;44.53
25510;BME280;13413;52.336;21.200;2023-05-29T06:55:13;100794.17;;;19.13;44.44
25510;BME280;13413;52.336;21.200;2023-05-29T06:58:07;100795.40;;;19.38;43.93
25510;BME280;13413;52.336;21.200;2023-05-29T07:01:01;100795.23;;;19.57;43.65
25510;BME280;13413;52.336;21.200;2023-05-29T07:03:56;100794.36;;;19.62;42.96
25510;BME280;13413;52.336;21.200;2023-05-29T07:06:50;100792.95;;;19.64;43.15
25510;BME280;13413;52.336;21.200;2023-05-29T07:09:44;100795.80;;;19.79;42.68
25510;BME280;13413;52.336;21.200;2023-05-29T07:12:38;100791.42;;;19.89;42.06
25510;BME280;13413;52.336;21.200;2023-05-29T07:15:32;100792.52;;;19.90;41.83
25510;BME280;13413;52.336;21.200;2023-05-29T07:18:26;100795.88;;;19.93;41.46
25510;BME280;13413;52.336;21.200;2023-05-29T07:21:20;100797.63;;;19.97;41.54
25510;BME280;13413;52.336;21.200;2023-05-29T07:24:15;100797.80;;;20.07;40.99
25510;BME280;13413;52.336;21.200;2023-05-29T07:27:09;100796.84;;;20.13;40.93
25510;BME280;13413;52.336;21.200;2023-05-29T07:30:03;100798.22;;;20.25;40.46
25510;BME280;13413;52.336;21.200;2023-05-29T07:32:55;100802.63;;;20.32;40.03
25510;BME280;13413;52.336;21.200;2023-05-29T07:42:01;100800.59;;;20.53;39.75
25510;BME280;13413;52.336;21.200;2023-05-29T07:44:55;100801.88;;;20.61;39.74
25510;BME280;13413;52.336;21.200;2023-05-29T07:47:50;100803.02;;;20.71;39.20
25510;BME280;13413;52.336;21.200;2023-05-29T07:50:44;100800.32;;;20.73;39.09
25510;BME280;13413;52.336;21.200;2023-05-29T07:53:41;100801.33;;;20.86;38.89
25510;BME280;13413;52.336;21.200;2023-05-29T07:56:39;100801.86;;;21.01;38.68
25510;BME280;13413;52.336;21.200;2023-05-29T07:59:34;100801.10;;;21.10;38.52
25510;BME280;13413;52.336;21.200;2023-05-29T08:02:28;100802.83;;;21.24;38.67
25510;BME280;13413;52.336;21.200;2023-05-29T08:05:22;100806.89;;;21.32;38.16
25510;BME280;13413;52.336;21.200;2023-05-29T08:08:17;100806.23;;;21.31;37.89
25510;BME280;13413;52.336;21.200;2023-05-29T08:11:11;100805.59;;;21.34;37.90
25510;BME280;13413;52.336;21.200;2023-05-29T08:14:06;100807.59;;;21.48;37.47
25510;BME280;13413;52.336;21.200;2023-05-29T08:17:00;100804.55;;;21.57;37.15
25510;BME280;13413;52.336;21.200;2023-05-29T08:19:54;100798.48;;;21.66;37.38
25510;BME280;13413;52.336;21.200;2023-05-29T08:22:47;100800.67;;;21.83;37.25
25510;BME280;13413;52.336;21.200;2023-05-29T08:25:42;100801.17;;;22.01;37.15
25510;BME280;13413;52.336;21.200;2023-05-29T08:28:36;100798.38;;;22.17;36.64
25510;BME280;13413;52.336;21.200;2023-05-29T08:31:31;100789.49;;;22.28;36.27
25510;BME280;13413;52.336;21.200;2023-05-29T08:34:25;100800.00;;;22.40;35.75
25510;BME280;13413;52.336;21.200;2023-05-29T08:37:18;100799.09;;;22.43;35.48
25510;BME280;13413;52.336;21.200;2023-05-29T08:40:13;100800.54;;;22.40;35.22
25510;BME280;13413;52.336;21.200;2023-05-29T08:43:10;100791.89;;;22.40;34.66
25510;BME280;13413;52.336;21.200;2023-05-29T08:46:06;100802.05;;;22.39;34.54
25510;BME280;13413;52.336;21.200;2023-05-29T08:49:01;100803.74;;;22.32;35.06
25510;BME280;13413;52.336;21.200;2023-05-29T08:52:00;100800.61;;;22.49;35.36
25510;BME280;13413;52.336;21.200;2023-05-29T08:54:56;100800.09;;;22.77;35.21
25510;BME280;13413;52.336;21.200;2023-05-29T08:57:51;100810.05;;;23.00;34.75
25510;BME280;13413;52.336;21.200;2023-05-29T09:00:46;100805.89;;;23.14;34.59
25510;BME280;13413;52.336;21.200;2023-05-29T09:03:38;100801.35;;;23.24;34.47
25510;BME280;13413;52.336;21.200;2023-05-29T09:06:33;100796.38;;;23.38;34.38
25510;BME280;13413;52.336;21.200;2023-05-29T09:09:27;100798.27;;;23.57;33.85
25510;BME280;13413;52.336;21.200;2023-05-29T09:12:22;100802.83;;;23.69;33.82
25510;BME280;13413;52.336;21.200;2023-05-29T09:15:22;100800.33;;;23.82;33.85
25510;BME280;13413;52.336;21.200;2023-05-29T09:18:18;100798.79;;;23.79;33.23
25510;BME280;13413;52.336;21.200;2023-05-29T09:21:26;100794.27;;;23.93;33.87
25510;BME280;13413;52.336;21.200;2023-05-29T09:24:21;100789.14;;;24.06;32.22
25510;BME280;13413;52.336;21.200;2023-05-29T09:27:15;100791.42;;;23.80;32.37
25510;BME280;13413;52.336;21.200;2023-05-29T09:30:11;100788.38;;;23.79;32.61
25510;BME280;13413;52.336;21.200;2023-05-29T09:33:24;100790.59;;;23.74;32.31
25510;BME280;13413;52.336;21.200;2023-05-29T09:36:24;100794.77;;;24.00;32.41
25510;BME280;13413;52.336;21.200;2023-05-29T09:39:19;100793.60;;;24.16;32.33
25510;BME280;13413;52.336;21.200;2023-05-29T09:42:13;100791.16;;;24.38;31.83
25510;BME280;13413;52.336;21.200;2023-05-29T09:45:08;100779.64;;;24.43;31.12
25510;BME280;13413;52.336;21.200;2023-05-29T09:48:03;100781.68;;;24.16;31.15
25510;BME280;13413;52.336;21.200;2023-05-29T09:50:57;100777.19;;;24.08;30.90
25510;BME280;13413;52.336;21.200;2023-05-29T09:53:49;100779.72;;;24.12;30.91
25510;BME280;13413;52.336;21.200;2023-05-29T10:04:32;100769.52;;;24.82;30.87
25510;BME280;13413;52.336;21.200;2023-05-29T10:07:28;100763.77;;;25.00;30.90
25510;BME280;13413;52.336;21.200;2023-05-29T10:10:27;100763.17;;;25.15;30.90
25510;BME280;13413;52.336;21.200;2023-05-29T10:13:23;100762.48;;;25.34;30.87
25510;BME280;13413;52.336;21.200;2023-05-29T10:16:20;100763.59;;;25.48;30.65
25510;BME280;13413;52.336;21.200;2023-05-29T10:19:18;100763.19;;;25.47;30.23
25510;BME280;13413;52.336;21.200;2023-05-29T10:22:13;100764.16;;;25.34;30.21
25510;BME280;13413;52.336;21.200;2023-05-29T10:25:12;100758.96;;;25.37;29.45
25510;BME280;13413;52.336;21.200;2023-05-29T10:28:07;100756.61;;;25.34;30.11
25510;BME280;13413;52.336;21.200;2023-05-29T10:31:07;100760.30;;;25.52;29.73
25510;BME280;13413;52.336;21.200;2023-05-29T10:34:11;100761.43;;;25.42;29.42
25510;BME280;13413;52.336;21.200;2023-05-29T10:37:13;100760.05;;;25.40;29.75
25510;BME280;13413;52.336;21.200;2023-05-29T10:40:12;100758.70;;;25.54;29.85
25510;BME280;13413;52.336;21.200;2023-05-29T10:46:02;100752.23;;;25.93;29.39
25510;BME280;13413;52.336;21.200;2023-05-29T10:48:56;100749.86;;;25.83;29.57
25510;BME280;13413;52.336;21.200;2023-05-29T10:51:53;100752.09;;;26.00;29.38
25510;BME280;13413;52.336;21.200;2023-05-29T10:54:56;100751.77;;;26.04;29.24
25510;BME280;13413;52.336;21.200;2023-05-29T10:57:51;100756.09;;;26.22;29.10
25510;BME280;13413;52.336;21.200;2023-05-29T11:00:46;100747.30;;;26.47;29.44
25510;BME280;13413;52.336;21.200;2023-05-29T11:03:41;100745.09;;;26.97;29.37
25510;BME280;13413;52.336;21.200;2023-05-29T11:06:37;100746.48;;;27.31;29.24
25510;BME280;13413;52.336;21.200;2023-05-29T11:09:33;100735.88;;;27.68;29.15
25510;BME280;13413;52.336;21.200;2023-05-29T11:12:27;100738.40;;;27.90;28.76
25510;BME280;13413;52.336;21.200;2023-05-29T11:15:21;100737.29;;;27.82;28.72
25510;BME280;13413;52.336;21.200;2023-05-29T11:18:15;100734.30;;;27.66;28.03
25510;BME280;13413;52.336;21.200;2023-05-29T11:21:41;100737.21;;;27.62;28.56
25510;BME280;13413;52.336;21.200;2023-05-29T11:24:39;100732.40;;;28.11;28.41
25510;BME280;13413;52.336;21.200;2023-05-29T11:27:35;100736.09;;;28.01;27.29
25510;BME280;13413;52.336;21.200;2023-05-29T11:30:30;100735.11;;;27.55;28.10
25510;BME280;13413;52.336;21.200;2023-05-29T11:33:27;100730.29;;;27.76;27.95
25510;BME280;13413;52.336;21.200;2023-05-29T11:36:22;100734.41;;;27.54;27.37
25510;BME280;13413;52.336;21.200;2023-05-29T11:42:09;100727.47;;;27.34;27.48
25510;BME280;13413;52.336;21.200;2023-05-29T11:45:14;100727.75;;;27.11;27.53
25510;BME280;13413;52.336;21.200;2023-05-29T11:48:08;100723.04;;;27.26;27.81
25510;BME280;13413;52.336;21.200;2023-05-29T11:51:05;100722.33;;;26.99;27.45
25510;BME280;13413;52.336;21.200;2023-05-29T11:54:00;100718.29;;;26.82;27.95
25510;BME280;13413;52.336;21.200;2023-05-29T11:56:53;100721.41;;;27.19;28.30
25510;BME280;13413;52.336;21.200;2023-05-29T11:59:48;100718.64;;;27.69;28.00
25510;BME280;13413;52.336;21.200;2023-05-29T12:02:43;100718.06;;;27.96;28.08
25510;BME280;13413;52.336;21.200;2023-05-29T12:05:47;100714.75;;;28.16;27.99
25510;BME280;13413;52.336;21.200;2023-05-29T12:08:42;100712.69;;;28.22;27.59
25510;BME280;13413;52.336;21.200;2023-05-29T12:11:37;100708.60;;;28.01;27.98
25510;BME280;13413;52.336;21.200;2023-05-29T12:14:31;100705.19;;;28.20;27.94
25510;BME280;13413;52.336;21.200;2023-05-29T12:23:13;100702.89;;;28.54;27.47
25510;BME280;13413;52.336;21.200;2023-05-29T12:26:07;100694.55;;;28.16;27.62
25510;BME280;13413;52.336;21.200;2023-05-29T12:29:03;100693.27;;;28.12;28.01
25510;BME280;13413;52.336;21.200;2023-05-29T12:32:00;100690.61;;;28.27;27.70
25510;BME280;13413;52.336;21.200;2023-05-29T12:34:54;100693.98;;;28.22;27.62
25510;BME280;13413;52.336;21.200;2023-05-29T12:37:49;100690.95;;;28.06;27.42
25510;BME280;13413;52.336;21.200;2023-05-29T12:40:49;100692.82;;;27.86;27.60
25510;BME280;13413;52.336;21.200;2023-05-29T12:43:43;100693.74;;;27.66;27.17
25510;BME280;13413;52.336;21.200;2023-05-29T12:46:41;100695.83;;;27.43;27.87
25510;BME280;13413;52.336;21.200;2023-05-29T12:49:37;100697.05;;;27.36;27.76
25510;BME280;13413;52.336;21.200;2023-05-29T12:52:31;100690.50;;;27.06;27.82
25510;BME280;13413;52.336;21.200;2023-05-29T12:55:25;100683.69;;;26.70;28.14
25510;BME280;13413;52.336;21.200;2023-05-29T12:58:20;100681.02;;;26.44;28.11
25510;BME280;13413;52.336;21.200;2023-05-29T13:01:15;100674.54;;;26.20;28.45
25510;BME280;13413;52.336;21.200;2023-05-29T13:04:09;100676.89;;;26.26;28.67
25510;BME280;13413;52.336;21.200;2023-05-29T13:07:04;100677.38;;;26.59;28.77
25510;BME280;13413;52.336;21.200;2023-05-29T13:09:58;100670.80;;;26.50;28.28
25510;BME280;13413;52.336;21.200;2023-05-29T13:12:53;100666.00;;;26.48;28.91
25510;BME280;13413;52.336;21.200;2023-05-29T13:15:47;100667.95;;;26.67;28.83
25510;BME280;13413;52.336;21.200;2023-05-29T13:18:41;100664.85;;;26.71;28.62
25510;BME280;13413;52.336;21.200;2023-05-29T13:21:35;100663.39;;;26.48;28.98
25510;BME280;13413;52.336;21.200;2023-05-29T13:24:29;100661.16;;;26.57;28.93
25510;BME280;13413;52.336;21.200;2023-05-29T13:27:23;100651.26;;;26.56;28.91
25510;BME280;13413;52.336;21.200;2023-05-29T13:30:18;100655.12;;;26.38;29.14
25510;BME280;13413;52.336;21.200;2023-05-29T13:33:12;100650.31;;;26.15;29.07
25510;BME280;13413;52.336;21.200;2023-05-29T13:36:07;100648.77;;;25.97;29.41
25510;BME280;13413;52.336;21.200;2023-05-29T13:39:02;100644.05;;;26.04;29.48
25510;BME280;13413;52.336;21.200;2023-05-29T13:41:56;100645.73;;;26.11;29.43
25510;BME280;13413;52.336;21.200;2023-05-29T13:44:51;100644.88;;;26.15;29.56
25510;BME280;13413;52.336;21.200;2023-05-29T13:47:45;100643.80;;;26.20;29.56
25510;BME280;13413;52.336;21.200;2023-05-29T13:53:33;100642.04;;;26.11;29.18
25510;BME280;13413;52.336;21.200;2023-05-29T13:56:27;100642.08;;;26.08;29.52
25510;BME280;13413;52.336;21.200;2023-05-29T13:59:21;100638.94;;;26.10;29.46
25510;BME280;13413;52.336;21.200;2023-05-29T14:02:15;100634.04;;;26.09;29.68
25510;BME280;13413;52.336;21.200;2023-05-29T14:05:10;100638.00;;;25.97;29.48
25510;BME280;13413;52.336;21.200;2023-05-29T14:08:04;100633.53;;;25.90;29.82
25510;BME280;13413;52.336;21.200;2023-05-29T14:10:58;100634.03;;;25.94;29.84
25510;BME280;13413;52.336;21.200;2023-05-29T14:13:52;100634.90;;;26.04;30.01
25510;BME280;13413;52.336;21.200;2023-05-29T14:16:50;100636.66;;;26.12;29.98
25510;BME280;13413;52.336;21.200;2023-05-29T14:22:38;100631.36;;;25.97;29.75
25510;BME280;13413;52.336;21.200;2023-05-29T14:25:32;100625.42;;;25.88;29.78
25510;BME280;13413;52.336;21.200;2023-05-29T14:28:26;100618.86;;;25.94;29.88
25510;BME280;13413;52.336;21.200;2023-05-29T14:31:21;100616.85;;;25.96;29.64
25510;BME280;13413;52.336;21.200;2023-05-29T14:34:13;100614.45;;;26.02;29.91
25510;BME280;13413;52.336;21.200;2023-05-29T14:42:41;100611.67;;;25.93;29.81
25510;BME280;13413;52.336;21.200;2023-05-29T14:45:35;100615.48;;;25.98;29.75
25510;BME280;13413;52.336;21.200;2023-05-29T14:48:28;100615.77;;;25.94;29.75
25510;BME280;13413;52.336;21.200;2023-05-29T14:51:22;100611.39;;;25.83;29.60
25510;BME280;13413;52.336;21.200;2023-05-29T14:54:17;100607.73;;;25.69;29.62
25510;BME280;13413;52.336;21.200;2023-05-29T14:57:10;100605.06;;;25.65;29.85
25510;BME280;13413;52.336;21.200;2023-05-29T15:00:07;100608.21;;;25.66;29.58
25510;BME280;13413;52.336;21.200;2023-05-29T15:03:00;100604.28;;;25.60;29.53
25510;BME280;13413;52.336;21.200;2023-05-29T15:05:54;100602.56;;;25.61;29.65
25510;BME280;13413;52.336;21.200;2023-05-29T15:08:49;100601.14;;;25.61;29.73
25510;BME280;13413;52.336;21.200;2023-05-29T15:11:43;100599.61;;;25.58;29.62
25510;BME280;13413;52.336;21.200;2023-05-29T15:14:37;100600.31;;;25.56;29.76
25510;BME280;13413;52.336;21.200;2023-05-29T15:17:32;100592.92;;;25.56;29.76
25510;BME280;13413;52.336;21.200;2023-05-29T15:20:27;100591.52;;;25.58;29.96
25510;BME280;13413;52.336;21.200;2023-05-29T15:23:21;100594.80;;;25.66;29.83
25510;BME280;13413;52.336;21.200;2023-05-29T15:26:16;100592.08;;;25.69;29.69
25510;BME280;13413;52.336;21.200;2023-05-29T15:29:10;100594.21;;;25.71;29.78
25510;BME280;13413;52.336;21.200;2023-05-29T15:32:04;100594.81;;;25.78;29.53
25510;BME280;13413;52.336;21.200;2023-05-29T15:34:57;100592.80;;;25.82;29.42
25510;BME280;13413;52.336;21.200;2023-05-29T15:37:51;100594.05;;;25.83;29.53
25510;BME280;13413;52.336;21.200;2023-05-29T15:40:46;100594.61;;;25.89;29.39
25510;BME280;13413;52.336;21.200;2023-05-29T15:43:41;100591.55;;;25.94;29.34
25510;BME280;13413;52.336;21.200;2023-05-29T15:46:35;100593.63;;;25.89;29.45
25510;BME280;13413;52.336;21.200;2023-05-29T15:49:28;100593.02;;;25.90;29.43
25510;BME280;13413;52.336;21.200;2023-05-29T15:52:23;100590.36;;;25.86;29.42
25510;BME280;13413;52.336;21.200;2023-05-29T15:55:18;100589.88;;;25.85;29.40
25510;BME280;13413;52.336;21.200;2023-05-29T15:58:11;100589.38;;;25.80;29.42
25510;BME280;13413;52.336;21.200;2023-05-29T16:01:06;100590.45;;;25.74;29.47
25510;BME280;13413;52.336;21.200;2023-05-29T16:04:00;100588.66;;;25.70;29.46
25510;BME280;13413;52.336;21.200;2023-05-29T16:06:53;100586.91;;;25.67;29.65
25510;BME280;13413;52.336;21.200;2023-05-29T16:09:47;100588.21;;;25.64;29.67